| time (UTC) | temp C | wind direction | speed KPH | gust KPH | rain 1hr cm | rain 24hr cm | rain mn cm | humidity % | barometer mb |
| 20260502194503 | 18 | 131 | 6.4 | 16.1 | 0.00 | 0.03 | 0.03 | 65 | 1014.3 |
| 20260502193603 | 20 | 117 | 6.4 | 20.9 | 0.00 | 0.03 | 0.03 | 60 | 1014.2 |
| 20260502192703 | 20 | 133 | 1.6 | 9.7 | 0.00 | 0.03 | 0.03 | 61 | 1014.3 |
| 20260502191804 | 19 | 0 | 0.0 | 0.0 | 0.00 | 0.03 | 0.03 | 63 | 1013.7 |
| 20260502190903 | 20 | 0 | 0.0 | 0.0 | 0.00 | 0.03 | 0.03 | 62 | 1013.6 |
| 20260502190005 | 20 | 0 | 0.0 | 0.0 | 0.00 | 0.03 | 0.03 | 62 | 1013.4 |
| 20260502185404 | 20 | 0 | 0.0 | 0.0 | 0.00 | 0.03 | 0.03 | 62 | 1013.4 |
| 20260502184717 | 20 | 286 | 0.0 | 1.6 | 0.00 | 0.03 | 0.03 | 61 | 1013.6 |
| 20260502183816 | 21 | 286 | 0.0 | 1.6 | 0.00 | 0.03 | 0.03 | 57 | 1013.4 |
| 20260502182703 | 21 | 286 | 0.0 | 1.6 | 0.00 | 0.03 | 0.03 | 56 | 1013.7 |
| 20260502181804 | 21 | 286 | 0.0 | 1.6 | 0.00 | 0.03 | 0.03 | 55 | 1013.5 |
| 20260502180903 | 22 | 286 | 0.0 | 1.6 | 0.00 | 0.03 | 0.03 | 55 | 1013.6 |
| 20260502163603 | 23 | 261 | 1.6 | 3.2 | 0.00 | 0.03 | 0.03 | 48 | 1014.1 |
| 20260502162703 | 23 | 261 | 1.6 | 3.2 | 0.00 | 0.03 | 0.03 | 49 | 1014.3 |
| 20260502161803 | 23 | 262 | 3.2 | 4.8 | 0.00 | 0.03 | 0.03 | 49 | 1014.5 |
| 20260502160903 | 24 | 254 | 1.6 | 3.2 | 0.00 | 0.03 | 0.03 | 48 | 1014.4 |
| 20260502151804 | 24 | 291 | 1.6 | 6.4 | 0.00 | 0.03 | 0.03 | 45 | 1015.2 |
| 20260502150903 | 25 | 261 | 3.2 | 6.4 | 0.00 | 0.03 | 0.03 | 46 | 1015.4 |
| 20260502123603 | 24 | 262 | 3.2 | 9.7 | 0.00 | 0.03 | 0.03 | 46 | 1016.8 |
| 20260502122703 | 23 | 283 | 3.2 | 9.7 | 0.00 | 0.03 | 0.03 | 47 | 1016.9 |
| 20260502121803 | 23 | 276 | 3.2 | 9.7 | 0.00 | 0.03 | 0.03 | 47 | 1017.0 |
| 20260502120904 | 23 | 264 | 3.2 | 9.7 | 0.00 | 0.03 | 0.03 | 47 | 1017.1 |
| 20260502115403 | 23 | 203 | 3.2 | 9.7 | 0.00 | 0.03 | 0.03 | 46 | 1017.2 |
| 20260502113603 | 23 | 221 | 3.2 | 9.7 | 0.00 | 0.03 | 0.03 | 46 | 1017.2 |
| 20260502112703 | 23 | 166 | 1.6 | 6.4 | 0.00 | 0.03 | 0.03 | 47 | 1017.4 |
| 20260502111803 | 23 | 204 | 3.2 | 12.9 | 0.00 | 0.03 | 0.03 | 45 | 1017.3 |
| 20260502110904 | 23 | 202 | 4.8 | 12.9 | 0.00 | 0.03 | 0.03 | 46 | 1017.5 |
| 20260502110004 | 23 | 251 | 3.2 | 9.7 | 0.00 | 0.03 | 0.03 | 47 | 1017.6 |
| 20260502105404 | 24 | 250 | 3.2 | 6.4 | 0.00 | 0.03 | 0.03 | 44 | 1017.5 |
| 20260502104504 | 23 | 251 | 3.2 | 9.7 | 0.00 | 0.03 | 0.03 | 46 | 1017.6 |
| 20260502103603 | 22 | 213 | 3.2 | 9.7 | 0.00 | 0.03 | 0.03 | 47 | 1017.9 |
| 20260502102704 | 23 | 143 | 3.2 | 9.7 | 0.00 | 0.03 | 0.03 | 45 | 1017.8 |
| 20260502100904 | 22 | 165 | 3.2 | 11.3 | 0.00 | 0.03 | 0.03 | 45 | 1017.8 |
| 20260502100221 | 22 | 146 | 3.2 | 11.3 | 0.00 | 0.03 | 0.03 | 45 | 1018.0 |
| 20260502091119 | 20 | 143 | 1.6 | 4.8 | 0.00 | 0.03 | 0.03 | 49 | 1018.3 |
| 20260502090222 | 20 | 151 | 3.2 | 4.8 | 0.00 | 0.03 | 0.03 | 51 | 1018.3 |
| 20260502071120 | 14 | 152 | 0.0 | 3.2 | 0.00 | 0.00 | 0.00 | 62 | 1018.8 |
| 20260502070218 | 14 | 131 | 0.0 | 3.2 | 0.00 | 0.00 | 0.00 | 61 | 1018.6 |
| 20260502065403 | 14 | 122 | 0.0 | 4.8 | 0.00 | 0.00 | 0.00 | 56 | 1018.6 |
| 20260502064503 | 14 | 124 | 1.6 | 4.8 | 0.00 | 0.00 | 0.00 | 52 | 1018.5 |
| 20260502063603 | 14 | 121 | 1.6 | 6.4 | 0.00 | 0.00 | 0.00 | 51 | 1018.6 |
| 20260502062704 | 14 | 122 | 3.2 | 6.4 | 0.00 | 0.00 | 0.00 | 50 | 1018.3 |
| 20260502061121 | 15 | 137 | 3.2 | 9.7 | 0.00 | 0.00 | 0.00 | 48 | 1018.5 |
| 20260502060218 | 13 | 143 | 3.2 | 11.3 | 0.00 | 0.00 | 0.00 | 50 | 1018.5 |
| 20260502055403 | 13 | 137 | 3.2 | 9.7 | 0.00 | 0.00 | 0.00 | 52 | 1018.6 |
| 20260502054503 | 12 | 135 | 3.2 | 6.4 | 0.00 | 0.00 | 0.00 | 53 | 1018.6 |
| 20260502053603 | 12 | 131 | 3.2 | 9.7 | 0.00 | 0.00 | 0.00 | 54 | 1018.3 |
| 20260502052703 | 12 | 135 | 1.6 | 6.4 | 0.00 | 0.00 | 0.00 | 55 | 1018.2 |
| 20260502051804 | 11 | 133 | 3.2 | 6.4 | 0.00 | 0.00 | 0.00 | 56 | 1018.2 |
| 20260502051117 | 11 | 133 | 1.6 | 4.8 | 0.00 | 0.00 | 0.00 | 57 | 1018.3 |
| 20260502050004 | 11 | 131 | 1.6 | 4.8 | 0.00 | 0.00 | 0.00 | 57 | 1018.3 |
| 20260502045403 | 11 | 129 | 1.6 | 4.8 | 0.00 | 0.00 | 0.00 | 57 | 1018.2 |
| 20260502044504 | 11 | 124 | 1.6 | 6.4 | 0.00 | 0.00 | 0.00 | 57 | 1018.4 |
| 20260502043603 | 11 | 118 | 1.6 | 3.2 | 0.00 | 0.00 | 0.00 | 57 | 1018.3 |
| 20260502042918 | 11 | 126 | 1.6 | 4.8 | 0.00 | 0.00 | 0.00 | 57 | 1018.1 |
| 20260502042020 | 11 | 137 | 1.6 | 4.8 | 0.00 | 0.00 | 0.00 | 57 | 1018.3 |
| 20260502040903 | 11 | 130 | 1.6 | 4.8 | 0.00 | 0.00 | 0.00 | 58 | 1018.3 |
| 20260502040003 | 11 | 131 | 1.6 | 4.8 | 0.00 | 0.00 | 0.00 | 58 | 1018.5 |
| 20260502035403 | 11 | 132 | 1.6 | 4.8 | 0.00 | 0.00 | 0.00 | 58 | 1018.6 |
| 20260502034503 | 11 | 124 | 1.6 | 3.2 | 0.00 | 0.00 | 0.00 | 57 | 1018.9 |
| 20260502033821 | 11 | 120 | 0.0 | 3.2 | 0.00 | 0.00 | 0.00 | 57 | 1018.7 |
| 20260502032918 | 11 | 118 | 0.0 | 1.6 | 0.00 | 0.00 | 0.00 | 57 | 1018.6 |
| 20260502031804 | 11 | 120 | 1.6 | 3.2 | 0.00 | 0.00 | 0.00 | 56 | 1018.7 |
| 20260502030903 | 11 | 121 | 0.0 | 3.2 | 0.00 | 0.00 | 0.00 | 56 | 1018.8 |
| 20260502030004 | 11 | 126 | 1.6 | 3.2 | 0.00 | 0.00 | 0.00 | 55 | 1018.8 |
| 20260502025403 | 11 | 129 | 1.6 | 3.2 | 0.00 | 0.00 | 0.00 | 55 | 1018.8 |
| 20260502024504 | 11 | 116 | 1.6 | 3.2 | 0.00 | 0.00 | 0.00 | 56 | 1018.9 |
| 20260502023604 | 11 | 123 | 1.6 | 4.8 | 0.00 | 0.00 | 0.00 | 55 | 1019.2 |
| 20260502022919 | 12 | 135 | 1.6 | 4.8 | 0.00 | 0.00 | 0.00 | 54 | 1019.1 |
| 20260502022021 | 12 | 129 | 1.6 | 4.8 | 0.00 | 0.00 | 0.00 | 53 | 1019.1 |
| 20260502021119 | 12 | 136 | 1.6 | 4.8 | 0.00 | 0.00 | 0.00 | 52 | 1019.3 |
| 20260502020003 | 12 | 121 | 1.6 | 3.2 | 0.00 | 0.00 | 0.00 | 51 | 1019.2 |
| 20260502015403 | 12 | 121 | 1.6 | 3.2 | 0.00 | 0.00 | 0.00 | 51 | 1019.4 |
| 20260502014504 | 12 | 122 | 1.6 | 3.2 | 0.00 | 0.00 | 0.00 | 51 | 1019.2 |
| 20260502013817 | 12 | 122 | 1.6 | 3.2 | 0.00 | 0.00 | 0.00 | 51 | 1019.3 |
| 20260502012703 | 12 | 123 | 1.6 | 4.8 | 0.00 | 0.00 | 0.00 | 50 | 1019.3 |
| 20260502012022 | 12 | 124 | 0.0 | 3.2 | 0.00 | 0.00 | 0.00 | 50 | 1019.3 |
| 20260502010903 | 13 | 124 | 0.0 | 3.2 | 0.00 | 0.00 | 0.00 | 50 | 1019.5 |
| 20260502010004 | 13 | 123 | 0.0 | 3.2 | 0.00 | 0.00 | 0.00 | 50 | 1019.5 |
| 20260502005403 | 13 | 121 | 0.0 | 3.2 | 0.00 | 0.00 | 0.00 | 49 | 1019.4 |
| 20260502004503 | 13 | 121 | 0.0 | 3.2 | 0.00 | 0.00 | 0.00 | 49 | 1019.8 |
| 20260502003604 | 13 | 119 | 1.6 | 4.8 | 0.00 | 0.00 | 0.00 | 48 | 1019.9 |
| 20260502002920 | 13 | 118 | 0.0 | 3.2 | 0.00 | 0.00 | 0.00 | 49 | 1020.0 |
| 20260502001803 | 13 | 117 | 0.0 | 1.6 | 0.00 | 0.00 | 0.00 | 48 | 1020.0 |
| 20260502000903 | 13 | 118 | 0.0 | 1.6 | 0.00 | 0.00 | 0.00 | 47 | 1020.2 |
| 20260502000003 | 13 | 118 | 0.0 | 1.6 | 0.00 | 0.00 | 0.00 | 47 | 1020.1 |
| 20260501235403 | 13 | 117 | 1.6 | 3.2 | 0.00 | 0.00 | 0.00 | 46 | 1020.2 |
| 20260501234503 | 14 | 117 | 1.6 | 4.8 | 0.00 | 0.00 | 0.00 | 46 | 1020.2 |
| 20260501233819 | 14 | 117 | 0.0 | 4.8 | 0.00 | 0.00 | 0.00 | 46 | 1020.3 |
| 20260501232703 | 14 | 117 | 1.6 | 3.2 | 0.00 | 0.00 | 0.00 | 45 | 1020.3 |
| 20260501231804 | 14 | 122 | 1.6 | 4.8 | 0.00 | 0.00 | 0.00 | 45 | 1020.3 |
| 20260501230903 | 15 | 131 | 1.6 | 4.8 | 0.00 | 0.00 | 0.00 | 44 | 1020.6 |
| 20260501230218 | 15 | 119 | 1.6 | 4.8 | 0.00 | 0.00 | 0.00 | 43 | 1020.5 |
| 20260501225619 | 15 | 128 | 1.6 | 4.8 | 0.00 | 0.00 | 0.00 | 43 | 1020.4 |
| 20260501224503 | 15 | 129 | 1.6 | 6.4 | 0.00 | 0.00 | 0.00 | 42 | 1020.4 |
| 20260501223603 | 15 | 119 | 1.6 | 4.8 | 0.00 | 0.00 | 0.00 | 41 | 1020.5 |
| 20260501222703 | 16 | 120 | 1.6 | 4.8 | 0.00 | 0.00 | 0.00 | 41 | 1020.3 |
| 20260501221803 | 16 | 121 | 1.6 | 4.8 | 0.00 | 0.00 | 0.00 | 40 | 1020.5 |
| 20260501220903 | 16 | 131 | 3.2 | 9.7 | 0.00 | 0.00 | 0.00 | 39 | 1020.4 |
| 20260501220004 | 16 | 121 | 3.2 | 9.7 | 0.00 | 0.00 | 0.00 | 39 | 1020.6 |
| 20260501215403 | 16 | 110 | 1.6 | 6.4 | 0.00 | 0.00 | 0.00 | 38 | 1020.7 |
| 20260501214503 | 16 | 123 | 1.6 | 6.4 | 0.00 | 0.00 | 0.00 | 38 | 1020.6 |